Time;durP1;ratioP1;P1;durP2;ratioP2;P2;SDS_P1;SDS_P2;PMS_P1;PMS_P2;Temp;Humidity;BMP_temperature;BMP_pressure;BME280_temperature;BME280_humidity;BME280_pressure;Samples;Min_cycle;Max_cycle;Signal;HPM_P1;HPM_P2
2024/04/02 00:01:10;;;;;;;1.00;0.73;;;;;;;8.14;100.00;153450.75;5033217;28;20993;-93
2024/04/02 00:03:35;;;;;;;0.97;0.67;;;;;;;8.11;100.00;153443.00;5034423;28;20268;-94
2024/04/02 00:06:02;;;;;;;1.10;0.73;;;;;;;8.11;100.00;153441.69;5032409;28;20436;-93
2024/04/02 00:08:28;;;;;;;1.33;0.87;;;;;;;8.08;100.00;153433.94;5032411;28;20982;-93
2024/04/02 00:10:55;;;;;;;1.10;0.80;;;;;;;8.06;100.00;153430.06;5032145;28;20436;-94
2024/04/02 00:13:21;;;;;;;1.40;0.97;;;;;;;8.05;100.00;153426.22;5030969;28;20467;-94
2024/04/02 00:15:48;;;;;;;1.30;0.83;;;;;;;8.03;100.00;153421.00;5032347;28;20451;-94
2024/04/02 00:18:15;;;;;;;1.40;1.07;;;;;;;7.99;100.00;153412.00;5032175;28;20215;-94
2024/04/02 00:20:42;;;;;;;0.90;0.60;;;;;;;7.96;100.00;153405.53;5030732;28;20919;-94
2024/04/02 00:23:08;;;;;;;1.20;0.80;;;;;;;7.95;100.00;153401.63;5014325;28;20435;-94
2024/04/02 00:25:35;;;;;;;1.37;0.73;;;;;;;7.95;100.00;153401.63;5032209;28;20510;-94
2024/04/02 00:28:00;;;;;;;1.40;0.97;;;;;;;7.95;100.00;153402.94;5031801;28;20435;-94
2024/04/02 00:30:28;;;;;;;1.50;0.90;;;;;;;7.94;100.00;153399.09;5030462;28;20978;-94
2024/04/02 00:32:54;;;;;;;1.60;0.83;;;;;;;7.90;100.00;153390.03;5031547;28;20731;-94
2024/04/02 00:35:22;;;;;;;2.20;0.80;;;;;;;7.92;100.00;153393.88;5032002;28;20481;-94
2024/04/02 00:37:48;;;;;;;1.00;0.63;;;;;;;7.91;100.00;153392.63;5031958;28;20435;-94
2024/04/02 00:40:15;;;;;;;1.17;0.70;;;;;;;7.88;100.00;153383.56;5031750;28;20946;-94
2024/04/02 00:42:44;;;;;;;1.43;0.80;;;;;;;7.90;100.00;153388.72;5014084;28;20198;-94
2024/04/02 00:45:12;;;;;;;1.00;0.60;;;;;;;7.88;100.00;153384.88;5013904;28;20796;-94
2024/04/02 00:47:37;;;;;;;1.60;0.80;;;;;;;7.89;100.00;153386.13;5031212;28;20471;-93
2024/04/02 00:50:12;;;;;;;1.20;0.70;;;;;;;7.90;100.00;153388.72;5032306;28;20482;-94
2024/04/02 00:52:39;;;;;;;1.47;0.80;;;;;;;7.88;100.00;153383.56;5014496;28;20228;-95
2024/04/02 00:55:07;;;;;;;1.27;0.80;;;;;;;7.86;100.00;153378.41;5034064;28;20926;-94
2024/04/02 00:57:35;;;;;;;2.57;0.80;;;;;;;7.83;100.00;153371.94;5048243;28;20511;-95
2024/04/02 01:00:05;;;;;;;1.43;0.70;;;;;;;7.84;100.00;153374.50;5036199;28;20784;-94
2024/04/02 01:02:31;;;;;;;1.10;0.67;;;;;;;7.83;100.00;153370.66;5033536;28;20813;-94
2024/04/02 01:04:58;;;;;;;1.37;0.67;;;;;;;7.81;100.00;153366.75;5032166;28;20443;-93
2024/04/02 01:07:24;;;;;;;1.00;0.83;;;;;;;7.81;100.00;153365.50;5032659;28;20260;-92
2024/04/02 01:09:55;;;;;;;1.40;0.80;;;;;;;7.79;100.00;153360.28;5035601;28;20436;-93
2024/04/02 01:12:20;;;;;;;0.90;0.63;;;;;;;7.78;100.00;153357.72;5031161;28;20234;-94
2024/04/02 01:14:47;;;;;;;1.07;0.77;;;;;;;7.77;100.00;153355.13;5013378;28;20456;-94
2024/04/02 01:17:12;;;;;;;1.20;0.70;;;;;;;7.75;100.00;153349.97;5031180;28;20225;-94
2024/04/02 01:19:39;;;;;;;1.50;0.90;;;;;;;7.75;100.00;153349.97;5013466;28;20934;-93
2024/04/02 01:22:05;;;;;;;1.30;0.83;;;;;;;7.76;100.00;153352.53;5029726;28;20341;-95
2024/04/02 01:24:31;;;;;;;1.20;0.83;;;;;;;7.76;100.00;153353.84;5029337;28;20451;-94
2024/04/02 01:26:59;;;;;;;1.30;0.80;;;;;;;7.76;100.00;153353.84;5031075;28;20665;-95
2024/04/02 01:29:26;;;;;;;0.90;0.50;;;;;;;7.78;100.00;153358.97;5029468;28;20476;-94
2024/04/02 01:31:52;;;;;;;1.13;0.83;;;;;;;7.78;100.00;153357.72;5037335;28;20498;-94
2024/04/02 01:34:18;;;;;;;1.10;0.77;;;;;;;7.75;100.00;153349.97;5050842;28;20435;-94
2024/04/02 01:36:44;;;;;;;1.10;0.70;;;;;;;7.75;100.00;153349.97;5019220;28;20573;-95
2024/04/02 01:39:11;;;;;;;1.40;1.10;;;;;;;7.74;100.00;153347.38;5013418;28;20440;-94
2024/04/02 01:41:36;;;;;;;1.43;0.80;;;;;;;7.76;100.00;153352.53;5031430;28;20207;-94
2024/04/02 01:44:05;;;;;;;1.10;0.80;;;;;;;7.75;100.00;153349.97;5030850;28;20436;-94
2024/04/02 01:46:30;;;;;;;1.27;0.70;;;;;;;7.73;100.00;153346.06;5031106;28;20674;-94
2024/04/02 01:48:57;;;;;;;1.63;0.90;;;;;;;7.70;100.00;153338.38;5031095;28;20435;-94
2024/04/02 01:51:23;;;;;;;2.70;0.97;;;;;;;7.69;100.00;153334.47;5013361;28;20202;-94
2024/04/02 01:53:49;;;;;;;2.53;0.90;;;;;;;7.71;100.00;153339.63;5030976;28;20542;-95
2024/04/02 01:56:15;;;;;;;1.13;0.70;;;;;;;7.71;100.00;153339.63;5030587;28;20215;-95
2024/04/02 01:58:41;;;;;;;1.50;0.70;;;;;;;7.67;100.00;153329.31;5031105;28;20439;-95
2024/04/02 02:01:08;;;;;;;1.30;0.90;;;;;;;7.65;100.00;153324.16;5029772;28;20227;-94
2024/04/02 02:03:34;;;;;;;2.13;0.80;;;;;;;7.66;100.00;153326.72;5031160;28;20855;-95
2024/04/02 02:06:00;;;;;;;1.17;0.83;;;;;;;7.66;100.00;153326.72;5035352;28;20439;-95
2024/04/02 02:08:26;;;;;;;2.90;1.03;;;;;;;7.66;100.00;153328.00;5032354;28;20985;-94
2024/04/02 02:10:54;;;;;;;0.90;0.80;;;;;;;7.64;100.00;153321.56;5033570;28;20210;-95
2024/04/02 02:13:20;;;;;;;1.20;0.80;;;;;;;7.64;100.00;153322.84;5034583;28;20824;-95
2024/04/02 02:15:56;;;;;;;1.03;0.70;;;;;;;7.64;100.00;153321.56;5034574;28;20448;-94
2024/04/02 02:18:25;;;;;;;2.13;1.00;;;;;;;7.62;100.00;153316.41;5033709;28;20533;-94
2024/04/02 02:20:50;;;;;;;1.00;0.73;;;;;;;7.62;100.00;153317.69;5049053;28;20451;-94
2024/04/02 02:23:17;;;;;;;1.00;0.80;;;;;;;7.63;100.00;153318.94;5054319;28;20430;-94
2024/04/02 02:25:42;;;;;;;2.07;0.70;;;;;;;7.63;100.00;153318.94;5051505;28;20220;-93
2024/04/02 02:28:09;;;;;;;1.10;0.87;;;;;;;7.62;100.00;153316.41;5038260;28;20930;-94
2024/04/02 02:30:34;;;;;;;1.00;0.70;;;;;;;7.62;100.00;153317.69;5015725;28;20230;-93
2024/04/02 02:33:01;;;;;;;0.90;0.70;;;;;;;7.63;100.00;153318.94;5034240;28;20460;-93
2024/04/02 02:35:27;;;;;;;1.10;0.77;;;;;;;7.62;100.00;153316.41;5033073;28;20257;-93
2024/04/02 02:37:54;;;;;;;0.90;0.70;;;;;;;7.62;100.00;153316.41;5043979;28;20440;-92
2024/04/02 02:40:21;;;;;;;2.00;1.10;;;;;;;7.63;100.00;153318.94;5043625;28;20470;-93
2024/04/02 02:42:46;;;;;;;1.20;0.90;;;;;;;7.63;100.00;153320.25;5034831;28;20509;-95
2024/04/02 02:45:13;;;;;;;1.10;0.83;;;;;;;7.64;100.00;153321.56;5033839;28;20915;-93
2024/04/02 02:47:38;;;;;;;1.17;0.70;;;;;;;7.64;100.00;153321.56;5015892;28;20210;-94
2024/04/02 02:50:05;;;;;;;3.33;1.03;;;;;;;7.64;100.00;153322.84;5033272;28;20464;-95
2024/04/02 02:52:32;;;;;;;1.20;0.80;;;;;;;7.65;100.00;153324.16;5033167;28;20227;-94
2024/04/02 02:54:59;;;;;;;1.17;0.73;;;;;;;7.67;100.00;153329.31;5033498;28;20538;-93
2024/04/02 02:57:24;;;;;;;0.90;0.70;;;;;;;7.66;100.00;153326.72;5033741;28;20442;-94
2024/04/02 02:59:51;;;;;;;0.90;0.80;;;;;;;7.66;100.00;153326.72;5033636;28;20439;-94
2024/04/02 03:02:16;;;;;;;1.00;0.70;;;;;;;7.66;100.00;153328.00;5033648;28;20296;-95
2024/04/02 03:04:43;;;;;;;1.20;0.70;;;;;;;7.65;100.00;153324.16;5046086;28;20455;-94
2024/04/02 03:07:08;;;;;;;1.37;0.87;;;;;;;7.62;100.00;153316.41;5036020;28;20223;-94
2024/04/02 03:09:41;;;;;;;1.50;1.10;;;;;;;7.60;100.00;153311.25;5016379;28;20502;-94
2024/04/02 03:12:07;;;;;;;1.00;0.70;;;;;;;7.57;100.00;153303.47;5016254;28;20666;-94
2024/04/02 03:14:33;;;;;;;1.63;0.90;;;;;;;7.55;100.00;153298.28;5033725;28;20432;-94
2024/04/02 03:16:59;;;;;;;1.30;0.80;;;;;;;7.52;100.00;153290.56;5033065;28;20215;-93
2024/04/02 03:19:25;;;;;;;1.10;0.80;;;;;;;7.50;100.00;153285.38;5040058;28;20482;-95
2024/04/02 03:21:51;;;;;;;1.60;0.80;;;;;;;7.46;100.00;153275.06;5033361;28;20239;-93
2024/04/02 03:24:17;;;;;;;1.03;0.67;;;;;;;7.46;100.00;153275.06;5035332;28;20455;-93
2024/04/02 03:26:45;;;;;;;1.80;1.10;;;;;;;7.42;100.00;153264.69;5035298;28;20217;-95
2024/04/02 03:29:12;;;;;;;1.13;0.87;;;;;;;7.41;100.00;153262.16;5042383;28;20434;-92
2024/04/02 03:31:37;;;;;;;2.10;0.90;;;;;;;7.38;100.00;153254.41;5043496;28;20475;-92
2024/04/02 03:34:04;;;;;;;1.40;0.83;;;;;;;7.36;100.00;153250.50;5033239;28;21099;-91
2024/04/02 03:36:29;;;;;;;1.03;0.70;;;;;;;7.34;100.00;153246.63;5044256;28;20571;-91
2024/04/02 03:38:57;;;;;;;1.30;1.10;;;;;;;7.31;100.00;153238.88;5024468;28;20436;-91
2024/04/02 03:41:23;;;;;;;1.40;0.70;;;;;;;7.29;100.00;153233.72;5048283;28;20579;-92
2024/04/02 03:43:51;;;;;;;1.10;0.60;;;;;;;7.29;100.00;153233.72;5033865;28;20444;-91
2024/04/02 03:46:17;;;;;;;1.20;0.80;;;;;;;7.27;100.00;153228.56;5020531;28;20919;-91
2024/04/02 03:48:43;;;;;;;1.33;0.90;;;;;;;7.26;100.00;153225.97;5019641;28;20433;-92
2024/04/02 03:51:09;;;;;;;1.40;0.80;;;;;;;7.24;100.00;153220.81;5038225;28;20620;-91
2024/04/02 03:53:35;;;;;;;1.10;0.70;;;;;;;7.23;100.00;153218.22;5035594;28;20522;-94
2024/04/02 03:56:02;;;;;;;1.20;0.83;;;;;;;7.25;100.00;153222.13;5028471;28;20207;-93
2024/04/02 03:58:29;;;;;;;0.80;0.50;;;;;;;7.24;100.00;153219.53;5012963;28;20524;-94
2024/04/02 04:00:56;;;;;;;1.10;0.60;;;;;;;7.25;100.00;153223.38;5027513;28;20525;-93
2024/04/02 04:03:23;;;;;;;4.60;0.70;;;;;;;7.27;100.00;153228.56;5031774;28;20431;-93
2024/04/02 04:05:56;;;;;;;1.00;0.60;;;;;;;7.29;100.00;153233.72;5033253;28;20448;-93
2024/04/02 04:08:26;;;;;;;1.00;0.60;;;;;;;7.31;100.00;153238.88;5033424;28;20455;-94
2024/04/02 04:10:53;;;;;;;1.13;0.77;;;;;;;7.32;100.00;153240.19;5013074;28;20456;-94
2024/04/02 04:13:20;;;;;;;1.00;0.60;;;;;;;7.31;100.00;153238.88;5015434;28;20468;-93
2024/04/02 04:15:51;;;;;;;1.00;0.60;;;;;;;7.32;100.00;153241.47;5014556;28;20440;-93
2024/04/02 04:18:19;;;;;;;1.30;0.60;;;;;;;7.31;100.00;153238.88;5015215;28;20477;-93
2024/04/02 04:20:50;;;;;;;1.37;0.80;;;;;;;7.33;100.00;153242.78;5025358;28;20491;-91
2024/04/02 04:23:17;;;;;;;1.03;0.80;;;;;;;7.30;100.00;153236.34;5024964;28;20431;-93
2024/04/02 04:25:42;;;;;;;0.77;0.47;;;;;;;7.32;100.00;153241.47;5031924;28;20447;-92
2024/04/02 04:28:09;;;;;;;0.90;0.70;;;;;;;7.33;100.00;153244.03;5046876;28;20552;-93
2024/04/02 04:30:35;;;;;;;1.07;0.60;;;;;;;7.34;100.00;153246.63;5032949;28;20236;-93
2024/04/02 04:33:03;;;;;;;1.20;0.70;;;;;;;7.39;100.00;153257.00;5017147;28;20567;-91
2024/04/02 04:35:32;;;;;;;0.93;0.67;;;;;;;7.39;100.00;153257.00;5029674;28;20202;-92
2024/04/02 04:38:01;;;;;;;1.10;0.80;;;;;;;7.39;100.00;153257.00;5013461;28;20452;-91
2024/04/02 04:40:27;;;;;;;1.07;0.63;;;;;;;7.39;100.00;153257.00;5031104;28;20459;-92
2024/04/02 04:42:53;;;;;;;1.40;0.63;;;;;;;7.39;100.00;153258.25;5030891;28;20443;-92
2024/04/02 04:45:19;;;;;;;1.37;0.70;;;;;;;7.40;100.00;153259.53;5018972;28;20627;-92
2024/04/02 04:47:45;;;;;;;1.03;0.70;;;;;;;7.39;100.00;153258.25;5013680;28;20472;-93
2024/04/02 04:50:11;;;;;;;1.00;0.40;;;;;;;7.38;100.00;153255.69;5031458;28;20214;-92
2024/04/02 04:52:39;;;;;;;1.10;0.70;;;;;;;7.38;100.00;153254.41;5013922;28;20432;-93
2024/04/02 04:55:04;;;;;;;1.23;0.60;;;;;;;7.39;100.00;153257.00;5031390;28;20246;-92
2024/04/02 04:57:31;;;;;;;1.10;0.63;;;;;;;7.40;100.00;153259.53;5013972;28;20509;-92
2024/04/02 04:59:56;;;;;;;0.80;0.67;;;;;;;7.41;100.00;153263.44;5032321;28;20207;-93
2024/04/02 05:02:23;;;;;;;0.90;0.60;;;;;;;7.38;100.00;153255.69;5031430;28;20501;-92
2024/04/02 05:04:51;;;;;;;1.10;0.70;;;;;;;7.36;100.00;153250.50;5030774;28;20681;-92
2024/04/02 05:07:23;;;;;;;0.80;0.60;;;;;;;7.34;100.00;153246.63;5029908;28;20468;-93
2024/04/02 05:09:50;;;;;;;0.80;0.60;;;;;;;7.37;100.00;153253.09;5013140;28;20478;-93
2024/04/02 05:12:17;;;;;;;1.00;0.63;;;;;;;7.39;100.00;153257.00;5029606;28;20553;-94
2024/04/02 05:14:42;;;;;;;1.03;0.60;;;;;;;7.42;100.00;153264.69;5013291;28;20479;-92
2024/04/02 05:17:09;;;;;;;1.10;0.90;;;;;;;7.42;100.00;153264.69;5030811;28;20502;-93
2024/04/02 05:19:37;;;;;;;1.33;0.80;;;;;;;7.42;100.00;153264.69;5031026;28;20214;-93
2024/04/02 05:22:06;;;;;;;1.13;0.63;;;;;;;7.46;100.00;153275.06;5018166;28;20448;-93
2024/04/02 05:24:32;;;;;;;1.40;0.60;;;;;;;7.46;100.00;153276.34;5031379;28;20526;-92
2024/04/02 05:27:00;;;;;;;2.30;0.67;;;;;;;7.49;100.00;153282.81;5030990;28;21005;-93
2024/04/02 05:29:25;;;;;;;1.00;0.60;;;;;;;7.50;100.00;153285.38;5011885;28;20212;-93
2024/04/02 05:31:52;;;;;;;1.17;0.73;;;;;;;7.54;100.00;153295.72;5026360;28;20533;-93
2024/04/02 05:34:17;;;;;;;1.30;0.90;;;;;;;7.57;100.00;153303.47;5030401;28;20219;-94
2024/04/02 05:36:44;;;;;;;1.40;0.90;;;;;;;7.56;100.00;153300.88;5031384;28;20448;-94
2024/04/02 05:39:09;;;;;;;3.17;0.80;;;;;;;7.57;100.00;153303.47;5031684;28;20295;-93
2024/04/02 05:41:36;;;;;;;3.43;0.87;;;;;;;7.58;100.00;153307.34;5029018;28;20485;-92
2024/04/02 05:44:03;;;;;;;3.20;1.00;;;;;;;7.61;100.00;153313.78;5014173;28;20687;-91
2024/04/02 05:46:44;;;;;;;1.20;0.73;;;;;;;7.66;100.00;153326.72;5034817;28;20450;-91
2024/04/02 05:49:09;;;;;;;1.03;0.77;;;;;;;7.69;100.00;153335.75;5026913;28;20451;-90
2024/04/02 05:51:36;;;;;;;1.50;1.00;;;;;;;7.74;100.00;153348.69;5032023;28;20464;-91
2024/04/02 05:54:03;;;;;;;1.17;0.87;;;;;;;7.79;100.00;153361.59;5027582;28;20266;-92
2024/04/02 05:56:29;;;;;;;1.50;1.00;;;;;;;7.82;100.00;153368.03;5030429;28;20452;-91
2024/04/02 05:58:55;;;;;;;1.50;0.83;;;;;;;7.83;100.00;153371.94;5032466;28;21008;-91
2024/04/02 06:01:26;;;;;;;1.40;1.00;;;;;;;7.89;100.00;153387.41;5031885;28;20452;-90
2024/04/02 06:03:51;;;;;;;0.90;0.60;;;;;;;8.03;100.00;153422.31;5040219;28;20206;-90
2024/04/02 06:06:18;;;;;;;1.93;0.70;;;;;;;8.27;100.00;153484.41;5030528;28;20464;-90
2024/04/02 06:08:43;;;;;;;1.20;0.80;;;;;;;8.61;100.00;153569.69;5029863;28;20294;-89
2024/04/02 06:11:10;;;;;;;1.43;0.90;;;;;;;8.93;100.00;153652.44;5023989;28;20459;-91
2024/04/02 06:13:35;;;;;;;1.00;0.70;;;;;;;9.19;99.50;153719.69;5026496;28;20242;-90
2024/04/02 06:16:02;;;;;;;1.30;0.60;;;;;;;9.45;98.65;153786.94;5023153;28;20459;-90
2024/04/02 06:18:29;;;;;;;1.33;0.63;;;;;;;9.70;97.67;153851.63;5028060;28;20217;-89
2024/04/02 06:20:59;;;;;;;1.00;0.60;;;;;;;9.86;95.35;153890.44;5031290;28;20460;-91
2024/04/02 06:23:24;;;;;;;0.87;0.50;;;;;;;9.75;93.97;153864.56;5010940;28;21064;-91
2024/04/02 06:25:51;;;;;;;1.63;0.70;;;;;;;9.62;93.42;153829.63;5030349;28;20452;-91
2024/04/02 06:28:16;;;;;;;1.30;0.77;;;;;;;9.51;93.35;153801.16;5027664;28;20264;-91
2024/04/02 06:30:43;;;;;;;0.90;0.43;;;;;;;9.40;93.83;153772.75;5029989;28;20487;-92
2024/04/02 06:33:09;;;;;;;0.90;0.50;;;;;;;9.26;94.08;153737.81;5034197;28;20254;-91
2024/04/02 06:35:37;;;;;;;1.00;0.67;;;;;;;9.21;94.68;153723.59;5040261;28;20566;-91
2024/04/02 06:38:02;;;;;;;0.90;0.50;;;;;;;9.15;95.10;153710.66;5029069;28;20243;-92
2024/04/02 06:40:29;;;;;;;1.63;0.50;;;;;;;9.15;95.76;153709.34;5030695;28;20958;-92
2024/04/02 06:42:54;;;;;;;1.47;0.63;;;;;;;9.12;96.28;153701.59;5035468;28;20210;-92
2024/04/02 06:45:21;;;;;;;1.60;0.80;;;;;;;9.12;96.84;153701.59;5031205;28;20491;-93
2024/04/02 06:47:47;;;;;;;2.37;0.60;;;;;;;9.08;97.07;153692.50;5022420;28;20218;-92
2024/04/02 06:50:13;;;;;;;0.90;0.50;;;;;;;9.10;97.40;153696.41;5031709;28;21062;-92
2024/04/02 06:52:40;;;;;;;1.00;0.60;;;;;;;9.10;97.99;153696.41;5021204;28;20207;-92
2024/04/02 06:55:07;;;;;;;1.77;0.60;;;;;;;9.11;97.89;153698.97;5031246;28;20503;-92
2024/04/02 06:57:32;;;;;;;0.77;0.30;;;;;;;9.14;97.78;153706.75;5032500;28;20536;-92
2024/04/02 06:59:59;;;;;;;0.80;0.43;;;;;;;9.18;98.37;153718.41;5032738;28;20460;-91
2024/04/02 07:02:26;;;;;;;0.80;0.43;;;;;;;9.26;98.91;153737.81;5012447;28;20265;-92
2024/04/02 07:04:53;;;;;;;0.80;0.40;;;;;;;9.43;98.91;153781.75;5031437;28;20809;-92
2024/04/02 07:07:18;;;;;;;0.70;0.33;;;;;;;9.59;99.50;153823.16;5030267;28;20460;-92
2024/04/02 07:09:46;;;;;;;0.90;0.50;;;;;;;9.65;98.62;153838.72;5028448;28;20541;-91
2024/04/02 07:12:12;;;;;;;1.07;0.40;;;;;;;9.66;98.27;153841.25;5030236;28;20632;-92
2024/04/02 07:14:38;;;;;;;0.90;0.30;;;;;;;9.75;98.36;153863.28;5031520;28;20478;-90
2024/04/02 07:17:04;;;;;;;1.03;0.60;;;;;;;10.10;98.53;153952.56;5024877;28;20248;-89
2024/04/02 07:19:31;;;;;;;0.90;0.50;;;;;;;10.41;97.42;154032.88;5027689;28;20559;-90
2024/04/02 07:21:56;;;;;;;0.80;0.40;;;;;;;10.68;96.10;154102.78;5025499;28;20285;-89
2024/04/02 07:24:23;;;;;;;0.83;0.40;;;;;;;10.98;94.63;154180.53;5027312;28;20458;-89
2024/04/02 07:26:49;;;;;;;2.73;0.63;;;;;;;11.33;93.26;154268.59;5027003;28;20215;-90
2024/04/02 07:29:16;;;;;;;1.67;0.50;;;;;;;11.66;92.04;154354.09;5028099;28;20573;-91
2024/04/02 07:31:41;;;;;;;1.20;0.50;;;;;;;11.99;90.90;154439.66;5005959;28;20547;-89
2024/04/02 07:34:08;;;;;;;1.10;0.33;;;;;;;12.08;87.66;154461.72;5026656;28;20490;-91
2024/04/02 07:36:33;;;;;;;1.00;0.60;;;;;;;12.01;86.31;154444.91;5025016;28;20249;-91
2024/04/02 07:39:00;;;;;;;1.57;0.80;;;;;;;11.82;83.64;154395.63;5028193;28;20472;-90
2024/04/02 07:41:26;;;;;;;1.30;0.40;;;;;;;11.71;83.99;154367.09;5027612;28;20207;-90
2024/04/02 07:43:53;;;;;;;1.10;0.57;;;;;;;11.65;84.41;154351.50;5029178;28;20489;-91
2024/04/02 07:46:19;;;;;;;2.13;0.70;;;;;;;11.61;84.44;154341.16;5034944;28;20207;-91
2024/04/02 07:48:46;;;;;;;2.20;0.70;;;;;;;11.60;84.66;154339.84;5030982;28;20452;-91
2024/04/02 07:51:11;;;;;;;1.10;0.40;;;;;;;11.63;83.98;154347.63;5030547;28;20965;-91
2024/04/02 07:53:38;;;;;;;2.27;0.63;;;;;;;11.68;84.38;154359.28;5032464;28;20536;-91
2024/04/02 07:56:03;;;;;;;2.10;0.83;;;;;;;11.75;84.17;154377.50;5012433;28;20210;-91
2024/04/02 07:58:30;;;;;;;2.87;0.80;;;;;;;11.83;83.92;154396.94;5029594;28;20879;-90
2024/04/02 08:00:57;;;;;;;2.10;0.60;;;;;;;11.96;82.12;154431.94;5014017;28;20233;-91
2024/04/02 08:03:23;;;;;;;1.60;0.80;;;;;;;12.11;80.81;154469.50;5031597;28;20801;-91
2024/04/02 08:05:55;;;;;;;1.33;0.57;;;;;;;12.34;81.30;154527.88;5031002;28;20460;-91
2024/04/02 08:08:22;;;;;;;2.70;0.60;;;;;;;12.49;79.74;154566.75;5030611;28;20969;-91
2024/04/02 08:10:47;;;;;;;2.40;0.70;;;;;;;12.47;79.42;154562.84;5028534;28;20529;-91
2024/04/02 08:13:14;;;;;;;1.20;0.57;;;;;;;12.36;77.53;154534.34;5029047;28;20469;-91
2024/04/02 08:15:40;;;;;;;1.40;0.53;;;;;;;12.33;78.54;154525.25;5028822;28;20214;-91
2024/04/02 08:18:07;;;;;;;3.47;0.70;;;;;;;12.40;77.79;154544.69;5028264;28;20435;-92
2024/04/02 08:20:33;;;;;;;2.17;0.53;;;;;;;12.51;77.88;154573.25;5028513;28;20263;-90
2024/04/02 08:23:00;;;;;;;2.50;0.50;;;;;;;12.48;76.04;154564.16;5026083;28;21011;-91
2024/04/02 08:25:26;;;;;;;1.53;0.40;;;;;;;12.54;76.50;154581.03;5031819;28;20451;-90
2024/04/02 08:27:53;;;;;;;2.93;0.50;;;;;;;12.64;75.92;154605.66;5017865;28;20447;-89
2024/04/02 08:30:19;;;;;;;1.23;0.53;;;;;;;12.67;77.04;154613.44;5031571;28;20483;-90
2024/04/02 08:32:46;;;;;;;2.33;0.60;;;;;;;12.64;76.28;154605.66;5027554;28;20482;-89
2024/04/02 08:35:13;;;;;;;2.23;0.93;;;;;;;12.71;76.00;154623.78;5030490;28;20288;-90
2024/04/02 08:37:40;;;;;;;3.00;0.83;;;;;;;12.87;75.72;154664.03;5025069;28;20456;-89
2024/04/02 08:40:09;;;;;;;1.30;0.70;;;;;;;13.01;74.73;154700.31;5025523;28;20467;-89
2024/04/02 08:42:37;;;;;;;2.47;0.70;;;;;;;13.08;75.13;154719.81;5023306;28;20448;-90
2024/04/02 08:45:04;;;;;;;2.80;0.90;;;;;;;12.98;71.35;154693.84;5026513;28;20752;-90
2024/04/02 08:47:30;;;;;;;1.60;0.70;;;;;;;12.90;73.61;154673.09;5028200;28;20973;-90
2024/04/02 08:49:56;;;;;;;1.40;0.50;;;;;;;12.74;74.51;154632.88;5010323;28;20984;-90
2024/04/02 08:52:24;;;;;;;1.60;0.50;;;;;;;12.57;75.95;154588.81;5027625;28;20440;-92
2024/04/02 08:54:50;;;;;;;1.20;0.50;;;;;;;12.47;76.22;154561.59;5033315;28;20226;-91
2024/04/02 08:57:18;;;;;;;1.47;0.80;;;;;;;12.45;76.56;154556.34;5008885;28;20856;-89
2024/04/02 08:59:44;;;;;;;1.20;0.63;;;;;;;12.49;76.65;154566.75;5029488;28;20463;-90
2024/04/02 09:02:11;;;;;;;1.83;0.60;;;;;;;12.51;76.48;154571.94;5026237;28;20441;-89
2024/04/02 09:04:37;;;;;;;1.90;0.50;;;;;;;12.53;75.49;154578.41;5025932;28;20448;-89
2024/04/02 09:07:03;;;;;;;1.33;0.50;;;;;;;12.53;76.13;154577.09;5026918;28;20455;-92
2024/04/02 09:09:30;;;;;;;2.73;0.73;;;;;;;12.48;78.01;154565.44;5015162;28;20207;-92
2024/04/02 09:11:57;;;;;;;1.97;0.67;;;;;;;12.35;80.58;154530.44;5058152;28;20488;-92
2024/04/02 09:14:22;;;;;;;1.20;0.80;;;;;;;12.24;80.90;154503.19;5058561;28;20470;-92
2024/04/02 09:16:49;;;;;;;1.10;0.47;;;;;;;12.20;82.15;154492.84;5056500;28;20439;-92
2024/04/02 09:19:15;;;;;;;1.77;0.67;;;;;;;12.19;84.08;154490.25;5038771;28;20234;-91
2024/04/02 09:21:41;;;;;;;1.23;0.57;;;;;;;12.17;83.46;154486.38;5016291;28;20966;-93
2024/04/02 09:24:08;;;;;;;1.57;0.63;;;;;;;12.19;82.43;154491.56;5031368;28;20622;-91
2024/04/02 09:26:36;;;;;;;1.33;0.47;;;;;;;12.21;81.36;154496.72;5020327;28;20968;-90
2024/04/02 09:29:02;;;;;;;1.00;0.30;;;;;;;12.27;81.25;154509.69;5036253;28;20456;-91
2024/04/02 09:31:33;;;;;;;1.80;0.60;;;;;;;12.27;80.12;154509.69;5034266;28;20495;-92
2024/04/02 09:34:05;;;;;;;1.37;0.57;;;;;;;12.21;77.93;154495.41;5033888;28;20230;-91
2024/04/02 09:36:42;;;;;;;3.53;0.60;;;;;;;12.26;79.20;154507.13;5033550;28;20463;-91
2024/04/02 09:39:10;;;;;;;0.90;0.37;;;;;;;12.26;76.08;154507.13;5032844;28;20454;-90
2024/04/02 09:41:39;;;;;;;1.80;0.80;;;;;;;12.29;76.27;154514.84;5027629;28;20459;-85
2024/04/02 09:44:05;;;;;;;2.80;0.80;;;;;;;12.30;76.20;154517.47;5034822;28;20498;-90
2024/04/02 09:46:32;;;;;;;2.43;0.50;;;;;;;12.20;73.61;154492.84;5012673;28;20519;-91
2024/04/02 09:49:00;;;;;;;2.00;1.00;;;;;;;12.20;72.74;154492.84;5031921;28;20214;-91
2024/04/02 09:51:27;;;;;;;2.50;0.70;;;;;;;12.18;72.25;154488.94;5012714;28;20466;-91
2024/04/02 09:53:54;;;;;;;4.03;0.90;;;;;;;12.25;75.93;154505.81;5012423;28;20479;-91
2024/04/02 09:56:20;;;;;;;1.80;0.70;;;;;;;12.27;74.54;154511.00;5028176;28;20489;-90
2024/04/02 09:58:47;;;;;;;1.57;0.93;;;;;;;12.38;75.96;154538.22;5028529;28;20463;-89
2024/04/02 10:01:17;;;;;;;1.70;0.80;;;;;;;12.37;70.94;154535.59;5031247;28;20468;-90
2024/04/02 10:03:45;;;;;;;2.50;0.73;;;;;;;12.49;75.31;154568.06;5032777;28;20439;-89
2024/04/02 10:06:11;;;;;;;2.90;0.90;;;;;;;12.50;73.33;154569.31;5031234;28;20462;-91
2024/04/02 10:08:37;;;;;;;2.10;0.70;;;;;;;12.54;72.16;154579.72;5031460;28;20456;-90
2024/04/02 10:11:04;;;;;;;2.47;0.70;;;;;;;12.55;71.83;154582.34;5031750;28;20466;-89
2024/04/02 10:13:34;;;;;;;3.30;1.20;;;;;;;12.52;71.53;154575.78;5030467;28;20206;-89
2024/04/02 10:16:02;;;;;;;2.80;0.80;;;;;;;12.50;71.36;154570.63;5030607;28;20459;-90
2024/04/02 10:18:29;;;;;;;3.13;0.73;;;;;;;12.48;71.09;154564.16;5029736;28;20491;-92
2024/04/02 10:20:56;;;;;;;4.90;0.90;;;;;;;12.43;71.82;154551.19;5032388;28;20466;-90
2024/04/02 10:23:22;;;;;;;1.50;0.70;;;;;;;12.31;66.82;154520.09;5018887;28;20882;-93
2024/04/02 10:25:49;;;;;;;3.03;0.60;;;;;;;12.30;70.62;154517.47;5040843;28;20505;-92
2024/04/02 10:28:23;;;;;;;1.20;0.80;;;;;;;12.27;68.47;154511.00;5042414;28;20203;-92
2024/04/02 10:30:50;;;;;;;1.23;0.70;;;;;;;12.25;70.17;154504.50;5041691;28;20798;-93
2024/04/02 10:33:19;;;;;;;1.63;0.50;;;;;;;12.22;68.53;154498.03;5040779;28;20502;-93
2024/04/02 10:35:46;;;;;;;2.17;0.90;;;;;;;12.28;69.65;154513.59;5036653;28;20478;-92
2024/04/02 10:38:12;;;;;;;1.30;0.63;;;;;;;12.32;69.46;154522.66;5036216;28;20455;-92
2024/04/02 10:40:38;;;;;;;2.45;0.90;;;;;;;12.34;69.56;154527.88;5032336;28;20505;-89
2024/04/02 10:43:04;;;;;;;2.27;0.80;;;;;;;12.39;71.92;154542.09;5030962;28;20221;-90
2024/04/02 10:45:31;;;;;;;3.07;0.60;;;;;;;12.40;70.66;154543.41;5013710;28;20459;-90
2024/04/02 10:47:56;;;;;;;1.53;0.77;;;;;;;12.45;72.84;154556.34;5029496;28;20727;-90
2024/04/02 10:50:25;;;;;;;1.70;0.73;;;;;;;12.42;71.91;154549.88;5030981;28;20542;-90
2024/04/02 10:52:52;;;;;;;2.30;0.80;;;;;;;12.45;75.79;154557.66;5030027;28;20769;-92
2024/04/02 10:55:18;;;;;;;1.87;0.70;;;;;;;12.40;79.41;154544.69;5018320;28;20483;-94
2024/04/02 10:57:44;;;;;;;1.30;0.43;;;;;;;12.31;81.50;154520.09;5032149;28;20455;-93
2024/04/02 11:00:12;;;;;;;1.67;0.60;;;;;;;12.27;82.76;154509.69;5033263;28;20459;-93
2024/04/02 11:02:38;;;;;;;1.00;0.50;;;;;;;12.32;84.82;154523.94;5033940;28;20240;-93
2024/04/02 11:05:06;;;;;;;1.33;0.70;;;;;;;12.33;84.82;154525.25;5034092;28;20944;-93
2024/04/02 11:07:33;;;;;;;2.70;1.10;;;;;;;12.38;85.14;154538.22;5043906;28;20455;-91
2024/04/02 11:10:01;;;;;;;2.10;0.70;;;;;;;12.38;82.59;154538.22;5031838;28;20487;-92
2024/04/02 11:12:27;;;;;;;5.33;0.50;;;;;;;12.43;82.10;154551.19;5028935;28;20468;-91
2024/04/02 11:14:54;;;;;;;1.20;0.60;;;;;;;12.46;81.85;154558.97;5024329;28;20491;-91
2024/04/02 11:17:20;;;;;;;2.23;0.70;;;;;;;12.47;79.85;154561.59;5027818;28;20215;-91
2024/04/02 11:19:47;;;;;;;1.33;0.60;;;;;;;12.51;77.90;154571.94;5027335;28;20490;-91
2024/04/02 11:25:11;;;;;;;2.50;0.70;;;;;;;12.55;76.68;154582.34;5009631;28;20486;-90
2024/04/02 11:27:37;;;;;;;3.53;0.70;;;;;;;12.54;75.53;154579.72;5025410;28;20553;-90